Time;durP1;ratioP1;P1;durP2;ratioP2;P2;SDS_P1;SDS_P2;PMS_P1;PMS_P2;Temp;Humidity;BMP_temperature;BMP_pressure;BME280_temperature;BME280_humidity;BME280_pressure;Samples;Min_cycle;Max_cycle;Signal;HPM_P1;HPM_P2
2023/01/30 00:00:59;;;;;;;54.20;28.70;;;77.00;2227.20;;;;;;5076756;28;20033;-87
2023/01/30 00:03:25;;;;;;;63.40;32.53;;;77.00;2227.20;;;;;;5077122;28;20032;-88
2023/01/30 00:05:51;;;;;;;68.05;32.50;;;77.00;2227.20;;;;;;5076519;28;20033;-86
2023/01/30 00:08:17;;;;;;;57.97;30.38;;;76.90;2227.20;;;;;;5076728;28;20521;-85
2023/01/30 00:10:44;;;;;;;63.92;32.03;;;76.90;2227.20;;;;;;5076148;28;20048;-87
2023/01/30 00:13:11;;;;;;;60.47;29.55;;;77.00;2227.20;;;;;;5076378;28;20416;-87
2023/01/30 00:15:36;;;;;;;55.65;29.45;;;76.90;2227.20;;;;;;5076001;28;20386;-81
2023/01/30 00:18:03;;;;;;;64.47;31.63;;;76.90;2227.20;;;;;;5076300;28;20032;-79
2023/01/30 00:20:28;;;;;;;61.90;31.48;;;76.90;2227.20;;;;;;5074560;28;20083;-80
2023/01/30 00:22:54;;;;;;;56.35;29.45;;;76.90;2227.20;;;;;;5075831;28;20423;-80
2023/01/30 00:25:20;;;;;;;58.90;29.42;;;76.80;2227.20;;;;;;5074808;28;20028;-81
2023/01/30 00:27:46;;;;;;;58.25;30.92;;;76.80;2227.20;;;;;;5074322;28;20119;-80
2023/01/30 00:30:12;;;;;;;54.40;28.55;;;76.90;2227.20;;;;;;5074844;28;20086;-80
2023/01/30 00:32:37;;;;;;;57.42;30.10;;;76.90;2227.20;;;;;;5075635;28;20705;-81
2023/01/30 00:35:05;;;;;;;61.88;29.27;;;76.90;2227.20;;;;;;5074302;28;20056;-81
2023/01/30 00:37:31;;;;;;;67.53;34.15;;;77.00;2227.20;;;;;;5074626;28;20040;-78
2023/01/30 00:39:57;;;;;;;61.30;31.90;;;77.00;2227.20;;;;;;5074139;28;20024;-79
2023/01/30 00:47:57;;;;;;;58.40;31.60;;;77.00;2227.20;;;;;;5086115;28;20558;-87
2023/01/30 00:50:22;;;;;;;51.70;28.17;;;76.90;2227.20;;;;;;5095884;28;20081;-87
2023/01/30 00:52:48;;;;;;;59.13;32.33;;;76.90;2227.20;;;;;;5096034;28;20032;-86
2023/01/30 00:55:14;;;;;;;66.60;36.65;;;76.90;2227.20;;;;;;5097220;28;20082;-86
2023/01/30 00:57:40;;;;;;;66.25;35.30;;;76.90;2227.20;;;;;;5096622;28;20116;-85
2023/01/30 01:00:08;;;;;;;73.22;35.97;;;76.90;2227.20;;;;;;5096074;28;20028;-87
2023/01/30 01:02:34;;;;;;;62.70;32.08;;;76.90;2227.20;;;;;;5100837;28;20119;-79
2023/01/30 01:05:00;;;;;;;65.38;34.95;;;76.90;2227.20;;;;;;5101954;28;20020;-80
2023/01/30 01:07:26;;;;;;;67.88;34.22;;;76.90;2227.20;;;;;;5099452;28;20027;-87
2023/01/30 01:09:51;;;;;;;65.00;33.50;;;76.90;2227.20;;;;;;5095784;28;20059;-86
2023/01/30 01:12:18;;;;;;;62.53;32.90;;;77.00;2227.20;;;;;;5095981;28;20024;-87
2023/01/30 01:14:44;;;;;;;66.97;34.53;;;76.90;2227.20;;;;;;5095500;28;20085;-85
2023/01/30 01:17:09;;;;;;;60.22;32.10;;;76.90;2227.20;;;;;;5095676;28;20481;-88
2023/01/30 01:19:35;;;;;;;69.07;34.15;;;76.90;2227.20;;;;;;5095912;28;20039;-86
2023/01/30 01:22:01;;;;;;;61.08;33.67;;;76.90;2227.20;;;;;;5095431;28;20032;-86
2023/01/30 01:24:26;;;;;;;65.13;31.40;;;76.90;2227.20;;;;;;5095325;28;20024;-86
2023/01/30 01:26:52;;;;;;;58.78;31.10;;;76.90;2227.20;;;;;;5096507;28;20645;-86
2023/01/30 01:29:18;;;;;;;67.70;33.65;;;77.00;2227.20;;;;;;5093825;28;20028;-85
2023/01/30 01:31:44;;;;;;;69.80;38.42;;;77.00;2227.20;;;;;;5074360;28;20028;-85
2023/01/30 01:34:10;;;;;;;63.08;36.47;;;77.00;2227.20;;;;;;5074365;28;20047;-85
2023/01/30 01:36:37;;;;;;;59.42;33.38;;;77.00;2227.20;;;;;;5073985;28;20052;-85
2023/01/30 01:39:03;;;;;;;59.80;33.60;;;77.10;2227.20;;;;;;5074311;28;20463;-85
2023/01/30 01:41:29;;;;;;;72.97;39.08;;;77.10;2227.20;;;;;;5075688;28;20025;-87
2023/01/30 01:44:06;;;;;;;65.35;33.55;;;77.10;2227.20;;;;;;5074303;28;20035;-86
2023/01/30 01:46:52;;;;;;;59.65;33.30;;;77.10;2227.20;;;;;;5073995;28;20025;-85
2023/01/30 01:49:34;;;;;;;75.65;38.25;;;77.00;2227.20;;;;;;5074708;28;20382;-87
2023/01/30 01:52:06;;;;;;;68.53;34.53;;;77.00;2227.20;;;;;;5074445;28;20033;-87
2023/01/30 01:54:58;;;;;;;58.28;29.85;;;77.10;2227.20;;;;;;5074547;28;20029;-85
2023/01/30 01:57:30;;;;;;;58.05;29.33;;;77.00;2227.20;;;;;;5074347;28;20028;-85
2023/01/30 02:00:05;;;;;;;53.72;28.67;;;77.00;2227.20;;;;;;5073982;28;20028;-86
2023/01/30 02:02:32;;;;;;;55.35;27.52;;;76.90;2227.20;;;;;;5074774;28;20029;-86
2023/01/30 02:05:01;;;;;;;51.45;26.15;;;76.90;2227.20;;;;;;5095707;28;20020;-87
2023/01/30 02:07:46;;;;;;;55.92;29.08;;;76.90;2227.20;;;;;;5098171;28;20008;-87
2023/01/30 02:10:22;;;;;;;53.58;26.60;;;76.90;2227.20;;;;;;5097968;28;20025;-84
2023/01/30 02:12:50;;;;;;;59.00;26.10;;;76.90;2227.20;;;;;;5092958;28;20013;-86
2023/01/30 02:15:17;;;;;;;56.47;29.25;;;77.20;2227.20;;;;;;5081733;28;20033;-85
2023/01/30 02:17:43;;;;;;;46.22;24.90;;;77.00;2227.20;;;;;;5077978;28;20035;-86
2023/01/30 02:20:27;;;;;;;52.13;27.27;;;76.90;2227.20;;;;;;5076997;28;20408;-85
2023/01/30 02:22:53;;;;;;;47.33;22.67;;;77.00;2227.20;;;;;;5077274;28;20039;-88
2023/01/30 02:25:45;;;;;;;47.75;23.60;;;76.90;2227.20;;;;;;5077360;28;20024;-88
2023/01/30 02:28:22;;;;;;;51.63;25.08;;;76.90;2227.20;;;;;;5054910;28;20040;-87
2023/01/30 02:31:01;;;;;;;42.08;21.83;;;76.90;2227.20;;;;;;5073665;28;20028;-88
2023/01/30 02:33:38;;;;;;;44.80;24.45;;;76.90;2227.20;;;;;;5073139;28;20082;-87
2023/01/30 02:36:33;;;;;;;40.45;21.63;;;76.90;2227.20;;;;;;5073610;28;20029;-87
2023/01/30 02:39:23;;;;;;;44.35;22.00;;;76.90;2227.20;;;;;;5066926;28;20067;-88
2023/01/30 02:42:01;;;;;;;47.63;22.83;;;77.00;2227.20;;;;;;5072240;28;20029;-87
2023/01/30 02:44:56;;;;;;;43.45;22.13;;;76.90;2227.20;;;;;;5073365;28;20059;-87
2023/01/30 02:47:40;;;;;;;44.92;23.15;;;76.90;2227.20;;;;;;5072526;28;20052;-88
2023/01/30 02:50:13;;;;;;;47.72;23.48;;;77.00;2227.20;;;;;;5073006;28;20058;-87
2023/01/30 02:52:39;;;;;;;47.22;24.60;;;77.00;2227.20;;;;;;5073335;28;20024;-87
2023/01/30 02:55:09;;;;;;;37.88;19.05;;;77.00;2227.20;;;;;;5073237;28;20033;-86
2023/01/30 02:57:34;;;;;;;35.42;19.58;;;77.00;2227.20;;;;;;5073347;28;20108;-87
2023/01/30 03:00:03;;;;;;;38.10;20.20;;;77.00;2227.20;;;;;;5073278;28;20543;-88
2023/01/30 03:03:17;;;;;;;37.58;19.75;;;77.10;2227.20;;;;;;5073269;28;20032;-87
2023/01/30 03:06:11;;;;;;;36.15;18.10;;;77.10;2227.20;;;;;;5060000;28;20036;-87
2023/01/30 03:09:00;;;;;;;32.28;16.23;;;77.00;2227.20;;;;;;5073209;28;20032;-87
2023/01/30 03:11:37;;;;;;;37.40;18.13;;;77.00;2227.20;;;;;;5072694;28;20076;-88
2023/01/30 03:14:25;;;;;;;31.23;16.13;;;76.90;2227.20;;;;;;5073102;28;20062;-88
2023/01/30 03:16:54;;;;;;;32.30;16.85;;;76.90;2227.20;;;;;;5076560;28;20025;-87
2023/01/30 03:19:20;;;;;;;30.88;16.48;;;76.90;2227.20;;;;;;5076732;28;20028;-87
2023/01/30 03:21:46;;;;;;;33.28;16.83;;;76.80;2227.20;;;;;;5077749;28;20021;-86
2023/01/30 03:24:12;;;;;;;29.98;16.73;;;76.90;2227.20;;;;;;5076634;28;20025;-87
2023/01/30 03:26:58;;;;;;;30.40;16.85;;;76.90;2227.20;;;;;;5076651;28;20021;-88
2023/01/30 03:29:24;;;;;;;33.03;17.90;;;76.90;2227.20;;;;;;5076508;28;20028;-87
2023/01/30 03:31:49;;;;;;;29.55;15.13;;;76.90;2227.20;;;;;;5076729;28;20477;-87
2023/01/30 03:34:15;;;;;;;31.75;15.55;;;76.90;2227.20;;;;;;5077350;28;20029;-88
2023/01/30 03:36:41;;;;;;;27.95;15.50;;;77.00;2227.20;;;;;;5077536;28;20060;-86
2023/01/30 03:39:07;;;;;;;38.67;20.23;;;76.90;2227.20;;;;;;5076060;28;20032;-86
2023/01/30 03:41:33;;;;;;;33.25;17.52;;;77.00;2227.20;;;;;;5077478;28;20037;-88
2023/01/30 03:43:58;;;;;;;33.53;18.30;;;77.00;2227.20;;;;;;5076188;28;20124;-86
2023/01/30 03:46:24;;;;;;;38.03;19.67;;;77.00;2227.20;;;;;;5076068;28;20059;-86
2023/01/30 03:48:50;;;;;;;34.75;19.02;;;77.00;2227.20;;;;;;5076087;28;20516;-87
2023/01/30 03:51:16;;;;;;;30.25;17.05;;;76.90;2227.20;;;;;;5076477;28;20028;-88
2023/01/30 03:53:41;;;;;;;29.08;15.95;;;76.90;2227.20;;;;;;5075761;28;20029;-86
2023/01/30 03:56:07;;;;;;;35.72;19.13;;;76.90;2227.20;;;;;;5076098;28;20162;-87
2023/01/30 03:58:33;;;;;;;30.83;17.27;;;77.00;2227.20;;;;;;5076031;28;20225;-87
2023/01/30 04:00:58;;;;;;;30.48;15.90;;;77.00;2227.20;;;;;;5075050;28;20023;-85
2023/01/30 04:03:24;;;;;;;31.60;16.10;;;76.90;2227.20;;;;;;5075768;28;20105;-87
2023/01/30 04:05:50;;;;;;;32.30;17.38;;;76.90;2227.20;;;;;;5075664;28;20029;-87
2023/01/30 04:08:16;;;;;;;46.70;24.58;;;76.90;2227.20;;;;;;5075822;28;20036;-88
2023/01/30 04:10:41;;;;;;;53.75;27.25;;;76.80;2227.20;;;;;;5075514;28;20439;-87
2023/01/30 04:13:07;;;;;;;43.90;23.20;;;76.90;2227.20;;;;;;5075740;28;20028;-86
2023/01/30 04:15:33;;;;;;;45.92;23.77;;;76.90;2227.20;;;;;;5075795;28;20531;-88
2023/01/30 04:17:58;;;;;;;46.03;25.58;;;76.90;2227.20;;;;;;5075573;28;20032;-88
2023/01/30 04:20:24;;;;;;;49.45;24.60;;;76.90;2227.20;;;;;;5077136;28;20470;-86
2023/01/30 04:22:50;;;;;;;40.72;20.45;;;76.90;2227.20;;;;;;5075398;28;20059;-86
2023/01/30 04:25:15;;;;;;;39.58;21.05;;;76.90;2227.20;;;;;;5075598;28;20031;-86
2023/01/30 04:27:42;;;;;;;54.28;27.60;;;77.00;2227.20;;;;;;5074208;28;20031;-86
2023/01/30 04:30:08;;;;;;;44.35;23.27;;;76.90;2227.20;;;;;;5075549;28;20074;-87
2023/01/30 04:32:34;;;;;;;39.20;18.50;;;77.00;2227.20;;;;;;5075304;28;20064;-87
2023/01/30 04:35:00;;;;;;;38.28;20.42;;;77.00;2227.20;;;;;;5075294;28;20503;-88
2023/01/30 04:37:25;;;;;;;53.17;27.50;;;77.10;2227.20;;;;;;5075334;28;20030;-88
2023/01/30 04:39:51;;;;;;;79.35;44.55;;;77.10;2227.20;;;;;;5075218;28;20123;-86
2023/01/30 04:42:17;;;;;;;88.15;47.47;;;77.10;2227.20;;;;;;5075453;28;20093;-87
2023/01/30 04:44:42;;;;;;;77.35;41.97;;;77.10;2227.20;;;;;;5075602;28;20029;-85
2023/01/30 04:47:08;;;;;;;65.72;38.38;;;77.20;2227.20;;;;;;5074849;28;20021;-86
2023/01/30 04:49:34;;;;;;;63.20;33.13;;;77.10;2227.20;;;;;;5075058;28;20064;-88
2023/01/30 04:51:59;;;;;;;54.05;30.60;;;77.10;2227.20;;;;;;5074913;28;20097;-86
2023/01/30 04:54:25;;;;;;;54.42;28.95;;;77.10;2227.20;;;;;;5074813;28;20020;-89
2023/01/30 04:56:51;;;;;;;57.78;30.67;;;77.20;2227.20;;;;;;5074699;28;20139;-86
2023/01/30 04:59:16;;;;;;;56.40;27.77;;;77.20;2227.20;;;;;;5074680;28;20051;-85
2023/01/30 05:01:42;;;;;;;55.15;28.15;;;77.20;2227.20;;;;;;5058176;28;20075;-87
2023/01/30 05:04:08;;;;;;;59.78;30.27;;;77.30;2227.20;;;;;;5054402;28;20489;-87
2023/01/30 05:06:35;;;;;;;58.08;29.48;;;77.20;2227.20;;;;;;5054152;28;20028;-85
2023/01/30 05:09:01;;;;;;;48.38;24.38;;;77.10;2227.20;;;;;;5054697;28;20436;-87
2023/01/30 05:11:28;;;;;;;49.75;25.42;;;77.00;2227.20;;;;;;5054090;28;20044;-87
2023/01/30 05:13:54;;;;;;;43.08;23.85;;;77.00;2227.20;;;;;;5054784;28;20099;-86
2023/01/30 05:16:21;;;;;;;45.10;24.02;;;77.00;2227.20;;;;;;5060804;28;20053;-80
2023/01/30 05:18:47;;;;;;;38.65;21.77;;;52.00;2227.20;;;;;;5059915;28;20033;-79
2023/01/30 05:21:21;;;;;;;46.28;25.55;;;77.70;2227.20;;;;;;5057205;28;20029;-85
2023/01/30 05:23:47;;;;;;;46.65;26.20;;;77.10;2227.20;;;;;;5054733;28;20459;-86
2023/01/30 05:26:14;;;;;;;57.08;31.35;;;77.10;2227.20;;;;;;5054486;28;20086;-85
2023/01/30 05:28:41;;;;;;;53.03;28.08;;;77.00;2227.20;;;;;;5054013;28;20032;-86
2023/01/30 05:31:12;;;;;;;50.60;27.17;;;76.90;2227.20;;;;;;5068815;28;20107;-87
2023/01/30 05:33:39;;;;;;;55.38;30.10;;;77.00;2227.20;;;;;;5074251;28;20031;-85
2023/01/30 05:36:05;;;;;;;66.05;34.10;;;77.00;2227.20;;;;;;5073730;28;20466;-86
2023/01/30 05:38:31;;;;;;;59.67;32.55;;;77.00;2227.20;;;;;;5073609;28;20032;-87
2023/01/30 05:41:02;;;;;;;70.18;32.83;;;76.90;2227.20;;;;;;5073848;28;20032;-86
2023/01/30 05:43:28;;;;;;;62.05;34.08;;;76.80;2227.20;;;;;;5074044;28;20105;-86
2023/01/30 05:45:56;;;;;;;51.65;28.48;;;76.80;2227.20;;;;;;5074079;28;20056;-86
2023/01/30 05:48:22;;;;;;;55.45;31.38;;;76.80;2227.20;;;;;;5073485;28;20029;-86
2023/01/30 05:50:52;;;;;;;64.15;35.65;;;76.90;2227.20;;;;;;5073937;28;20024;-87
2023/01/30 05:53:19;;;;;;;65.00;34.95;;;77.00;2227.20;;;;;;5072892;28;20531;-85
2023/01/30 05:55:45;;;;;;;63.67;33.25;;;77.00;2227.20;;;;;;5073279;28;20029;-86
2023/01/30 05:58:11;;;;;;;52.50;29.88;;;77.00;2227.20;;;;;;5074486;28;20028;-85
2023/01/30 06:00:37;;;;;;;56.53;28.80;;;77.00;2227.20;;;;;;5073740;28;20021;-87
2023/01/30 06:03:03;;;;;;;56.58;28.40;;;77.10;2227.20;;;;;;5073581;28;20213;-86
2023/01/30 06:05:29;;;;;;;54.90;30.20;;;77.10;2227.20;;;;;;5073820;28;20021;-85
2023/01/30 06:07:54;;;;;;;56.53;29.45;;;77.10;2227.20;;;;;;5073635;28;20020;-85
2023/01/30 06:10:20;;;;;;;50.58;28.40;;;77.00;2227.20;;;;;;5073295;28;20059;-87
2023/01/30 06:12:46;;;;;;;63.92;34.63;;;76.90;2227.20;;;;;;5074659;28;20477;-87
2023/01/30 06:15:11;;;;;;;62.58;34.28;;;76.80;2227.20;;;;;;5073266;28;20028;-88
2023/01/30 06:17:42;;;;;;;60.83;32.97;;;76.80;2227.20;;;;;;5074303;28;20020;-85
2023/01/30 06:20:09;;;;;;;60.65;32.90;;;76.80;2227.20;;;;;;5073632;28;20033;-87
2023/01/30 06:22:34;;;;;;;142.60;79.45;;;76.80;2227.20;;;;;;5073432;28;20470;-88
2023/01/30 06:25:00;;;;;;;157.10;100.43;;;76.80;2227.20;;;;;;5073235;28;20032;-88
2023/01/30 06:27:25;;;;;;;131.70;76.40;;;76.80;2227.20;;;;;;5073326;28;20078;-86
2023/01/30 06:29:51;;;;;;;76.63;48.50;;;76.80;2227.20;;;;;;5073278;28;20044;-86
2023/01/30 06:32:17;;;;;;;69.20;48.63;;;52.10;2227.20;;;;;;5073025;28;20024;-88
2023/01/30 06:34:42;;;;;;;77.43;46.55;;;52.10;2227.20;;;;;;5073377;28;20034;-86
2023/01/30 06:37:08;;;;;;;92.18;46.60;;;52.00;2227.20;;;;;;5073219;28;20032;-86
2023/01/30 06:39:34;;;;;;;91.57;46.47;;;51.90;2227.20;;;;;;5073164;28;20082;-87
2023/01/30 06:41:59;;;;;;;90.65;45.05;;;51.90;2227.20;;;;;;5073286;28;20025;-86
2023/01/30 06:44:25;;;;;;;104.57;53.15;;;51.90;2227.20;;;;;;5073158;28;20377;-88
2023/01/30 06:46:52;;;;;;;92.25;49.60;;;51.80;2227.20;;;;;;5073319;28;20048;-88
2023/01/30 06:49:17;;;;;;;132.88;67.80;;;51.80;2227.20;;;;;;5073122;28;20058;-88
2023/01/30 06:51:43;;;;;;;89.45;47.05;;;51.80;2227.20;;;;;;5076474;28;20029;-89
2023/01/30 06:54:09;;;;;;;74.68;38.72;;;51.80;2227.20;;;;;;5077388;28;20115;-88
2023/01/30 06:56:34;;;;;;;111.82;51.50;;;51.80;2227.20;;;;;;5077132;28;20378;-86
2023/01/30 06:59:00;;;;;;;150.38;76.60;;;51.80;2227.20;;;;;;5077094;28;20053;-87
2023/01/30 07:01:26;;;;;;;155.50;69.03;;;51.80;2227.20;;;;;;5077295;28;20028;-86
2023/01/30 07:03:51;;;;;;;144.70;71.63;;;51.80;2227.20;;;;;;5077263;28;20020;-87
2023/01/30 07:06:17;;;;;;;134.30;67.00;;;51.80;2227.20;;;;;;5076886;28;20374;-88
2023/01/30 07:08:43;;;;;;;102.22;47.03;;;51.80;2227.20;;;;;;5077089;28;20036;-87
2023/01/30 07:11:09;;;;;;;81.22;42.80;;;51.80;2227.20;;;;;;5076681;28;20055;-89
2023/01/30 07:13:35;;;;;;;118.60;54.85;;;51.80;2227.20;;;;;;5077312;28;20020;-88
2023/01/30 07:16:00;;;;;;;136.48;68.95;;;51.80;2227.20;;;;;;5076996;28;20428;-88
2023/01/30 07:18:26;;;;;;;116.40;56.20;;;51.80;2227.20;;;;;;5076835;28;20028;-85
2023/01/30 07:20:52;;;;;;;72.15;39.17;;;51.80;2227.20;;;;;;5076900;28;20028;-86
2023/01/30 07:23:18;;;;;;;61.17;35.30;;;51.80;2227.20;;;;;;5077921;28;20032;-88
2023/01/30 07:25:43;;;;;;;69.50;40.30;;;51.80;2227.20;;;;;;5076931;28;20028;-85
2023/01/30 07:28:09;;;;;;;44.53;28.23;;;51.90;2227.20;;;;;;5076590;28;20033;-86
2023/01/30 07:30:35;;;;;;;54.67;30.20;;;51.80;2227.20;;;;;;5076779;28;20470;-87
2023/01/30 07:33:03;;;;;;;71.35;36.40;;;51.70;2227.20;;;;;;5076321;28;20733;-87
2023/01/30 07:35:32;;;;;;;57.88;34.30;;;51.80;2227.20;;;;;;5077638;28;20028;-87
2023/01/30 07:37:57;;;;;;;55.63;35.42;;;51.80;2227.20;;;;;;5076539;28;20481;-88
2023/01/30 07:40:24;;;;;;;62.60;40.88;;;51.90;2227.20;;;;;;5076539;28;20028;-86
2023/01/30 07:43:04;;;;;;;99.20;66.88;;;51.80;2227.20;;;;;;5076279;28;20024;-87
2023/01/30 07:45:38;;;;;;;75.18;55.95;;;51.70;2227.20;;;;;;5076415;28;20040;-86
2023/01/30 07:48:04;;;;;;;67.78;49.58;;;51.70;2227.20;;;;;;5076230;28;20078;-86
2023/01/30 07:50:30;;;;;;;42.20;28.10;;;51.70;2227.20;;;;;;5076263;28;20595;-89
2023/01/30 07:52:56;;;;;;;48.22;28.00;;;51.90;2227.20;;;;;;5076562;28;20032;-87
2023/01/30 07:55:21;;;;;;;73.43;45.05;;;51.80;2227.20;;;;;;5077261;28;20380;-87
2023/01/30 07:57:47;;;;;;;79.30;50.25;;;51.90;2227.20;;;;;;5076379;28;20027;-89
2023/01/30 08:00:14;;;;;;;52.35;30.30;;;51.90;2227.20;;;;;;5076248;28;20035;-86
2023/01/30 08:02:39;;;;;;;46.47;27.48;;;51.90;2227.20;;;;;;5075737;28;20031;-90
2023/01/30 08:05:06;;;;;;;64.65;39.95;;;51.90;2227.20;;;;;;5076301;28;20032;-88
2023/01/30 08:07:31;;;;;;;56.03;34.47;;;52.00;2227.20;;;;;;5076180;28;20378;-87
2023/01/30 08:09:57;;;;;;;48.10;28.85;;;51.90;2227.20;;;;;;5076895;28;20036;-87
2023/01/30 08:12:23;;;;;;;42.60;25.23;;;52.10;2227.20;;;;;;5076206;28;20102;-88
2023/01/30 08:14:48;;;;;;;49.50;28.27;;;52.10;2227.20;;;;;;5075972;28;20020;-87
2023/01/30 08:17:14;;;;;;;55.47;31.75;;;76.80;2227.20;;;;;;5075938;28;20035;-86
2023/01/30 08:19:40;;;;;;;46.80;28.80;;;76.90;2227.20;;;;;;5076056;28;20138;-88
2023/01/30 08:22:05;;;;;;;37.85;21.23;;;76.90;2227.20;;;;;;5075947;28;20382;-86
2023/01/30 08:24:31;;;;;;;39.50;22.02;;;76.80;2227.20;;;;;;5075827;28;20024;-86
2023/01/30 08:26:57;;;;;;;37.22;22.58;;;76.80;2227.20;;;;;;5075779;28;20021;-86
2023/01/30 08:29:23;;;;;;;47.05;30.30;;;76.90;2227.20;;;;;;5074230;28;20024;-87
2023/01/30 08:31:48;;;;;;;54.42;32.22;;;76.90;2227.20;;;;;;5055872;28;20025;-87
2023/01/30 08:34:14;;;;;;;44.63;27.60;;;77.00;2227.20;;;;;;5055724;28;20025;-86
2023/01/30 08:36:40;;;;;;;44.85;26.75;;;77.10;2227.20;;;;;;5055672;28;20092;-88
2023/01/30 08:39:05;;;;;;;40.40;23.33;;;77.10;2227.20;;;;;;5055673;28;20033;-86
2023/01/30 08:41:31;;;;;;;44.00;26.75;;;77.10;2227.20;;;;;;5055735;28;20029;-87
2023/01/30 08:43:57;;;;;;;44.58;25.35;;;77.20;2227.20;;;;;;5055110;28;20116;-89
2023/01/30 08:46:22;;;;;;;54.75;32.50;;;77.20;2227.20;;;;;;5055553;28;20039;-86
2023/01/30 08:48:49;;;;;;;51.40;31.77;;;77.30;2227.20;;;;;;5055321;28;20036;-86
2023/01/30 08:51:15;;;;;;;43.45;27.55;;;77.40;2227.20;;;;;;5055498;28;20025;-88
2023/01/30 08:53:41;;;;;;;40.22;25.85;;;77.40;2227.20;;;;;;5055156;28;20048;-87
2023/01/30 08:56:06;;;;;;;67.63;36.88;;;77.40;2227.20;;;;;;5055338;28;20021;-87
2023/01/30 08:58:32;;;;;;;45.38;28.52;;;77.50;2227.20;;;;;;5056143;28;20415;-89
2023/01/30 09:00:58;;;;;;;46.47;27.75;;;77.50;2227.20;;;;;;5055382;28;20104;-87
2023/01/30 09:03:24;;;;;;;53.65;33.22;;;77.50;2227.20;;;;;;5054880;28;20091;-88
2023/01/30 09:05:55;;;;;;;57.00;35.22;;;77.60;2227.20;;;;;;5054983;28;20032;-82
2023/01/30 09:08:21;;;;;;;51.03;30.30;;;77.70;2227.20;;;;;;5054922;28;20386;-84
2023/01/30 09:10:47;;;;;;;60.17;36.58;;;77.60;2227.20;;;;;;5053494;28;20286;-80
2023/01/30 09:13:13;;;;;;;44.08;27.15;;;77.60;2227.20;;;;;;5053203;28;20112;-79
2023/01/30 09:15:43;;;;;;;56.17;33.65;;;77.50;2227.20;;;;;;5054701;28;20492;-81
2023/01/30 09:18:08;;;;;;;60.80;35.58;;;77.40;2227.20;;;;;;5054678;28;20025;-85
2023/01/30 09:20:34;;;;;;;51.35;35.88;;;77.50;2227.20;;;;;;5055796;28;20063;-81
2023/01/30 09:23:00;;;;;;;43.30;25.10;;;77.60;2227.20;;;;;;5055578;28;20025;-82
2023/01/30 09:25:26;;;;;;;54.15;32.10;;;102.40;2227.20;;;;;;5057957;28;20034;-82
2023/01/30 09:27:53;;;;;;;51.00;29.23;;;102.40;2227.20;;;;;;5055960;28;20029;-78
2023/01/30 09:30:19;;;;;;;52.20;31.75;;;102.50;2227.20;;;;;;5057373;28;20405;-77
2023/01/30 09:32:45;;;;;;;51.17;31.52;;;102.60;2227.20;;;;;;5055981;28;20037;-78
2023/01/30 09:35:11;;;;;;;46.30;26.92;;;102.60;2227.20;;;;;;5053821;28;20025;-81
2023/01/30 09:37:37;;;;;;;41.97;24.05;;;102.60;2227.20;;;;;;5053370;28;20120;-79
2023/01/30 09:40:03;;;;;;;51.60;28.38;;;102.40;2227.20;;;;;;5052877;28;20060;-79
2023/01/30 09:42:31;;;;;;;51.05;28.95;;;102.50;2227.20;;;;;;5053345;28;20032;-79
2023/01/30 09:45:18;;;;;;;51.85;29.75;;;102.60;2227.20;;;;;;5053292;28;20060;-78
2023/01/30 09:48:17;;;;;;;48.67;28.40;;;102.70;2227.20;;;;;;5054345;28;20083;-81
2023/01/30 09:50:51;;;;;;;62.92;32.35;;;102.80;2227.20;;;;;;5054557;28;20120;-83
2023/01/30 09:53:33;;;;;;;148.27;80.55;;;102.70;2227.20;;;;;;5052616;28;20033;-79
2023/01/30 09:56:00;;;;;;;69.30;45.17;;;102.80;2227.20;;;;;;5053064;28;20021;-80
2023/01/30 09:58:44;;;;;;;48.47;30.27;;;102.80;2227.20;;;;;;5053048;28;20033;-81
2023/01/30 10:01:20;;;;;;;51.13;30.52;;;102.80;2227.20;;;;;;5052863;28;20032;-81
2023/01/30 10:04:02;;;;;;;54.58;31.80;;;102.80;2227.20;;;;;;5056677;28;20683;-82
2023/01/30 10:06:29;;;;;;;61.50;41.03;;;102.90;2227.20;;;;;;5062736;28;20028;-84
2023/01/30 10:09:08;;;;;;;59.72;35.50;;;102.80;2227.20;;;;;;5063641;28;20028;-79
2023/01/30 10:12:14;;;;;;;50.47;27.67;;;102.80;2227.20;;;;;;5059473;28;20073;-80
2023/01/30 10:15:07;;;;;;;41.70;23.67;;;102.80;2227.20;;;;;;5063067;28;20021;-82
2023/01/30 10:18:10;;;;;;;50.47;29.73;;;102.80;2227.20;;;;;;5061292;28;20025;-79
2023/01/30 10:20:56;;;;;;;56.72;34.75;;;102.80;2227.20;;;;;;5052583;28;20485;-81
2023/01/30 10:23:38;;;;;;;50.30;31.17;;;102.80;2227.20;;;;;;5068450;28;20029;-81
2023/01/30 10:26:18;;;;;;;62.28;33.53;;;102.70;2227.20;;;;;;5051633;28;20028;-80
2023/01/30 10:29:07;;;;;;;63.83;36.75;;;102.70;2227.20;;;;;;5051848;28;20045;-79
2023/01/30 10:31:47;;;;;;;60.38;34.10;;;102.60;2227.20;;;;;;5055863;28;20032;-81
2023/01/30 10:34:41;;;;;;;57.03;35.17;;;102.50;2227.20;;;;;;5052677;28;20032;-83
2023/01/30 10:37:08;;;;;;;59.65;35.33;;;102.50;2227.20;;;;;;5051588;28;20120;-83
2023/01/30 10:39:34;;;;;;;54.20;31.35;;;102.50;2227.20;;;;;;5053593;28;20029;-82
2023/01/30 10:42:10;;;;;;;53.97;32.33;;;102.50;2227.20;;;;;;5052287;28;20475;-82
2023/01/30 10:44:37;;;;;;;56.45;34.85;;;102.50;2227.20;;;;;;5052804;28;20425;-81
2023/01/30 10:47:21;;;;;;;63.17;34.50;;;102.50;2227.20;;;;;;5052286;28;20032;-82
2023/01/30 10:50:14;;;;;;;57.90;33.30;;;102.50;2227.20;;;;;;5051973;28;20386;-82
2023/01/30 10:52:48;;;;;;;60.22;32.97;;;102.50;2227.20;;;;;;5052387;28;20032;-82
2023/01/30 10:55:34;;;;;;;48.05;28.83;;;102.50;2227.20;;;;;;5052310;28;20044;-80
2023/01/30 10:58:08;;;;;;;55.20;31.63;;;102.40;2227.20;;;;;;5052053;28;20025;-81
2023/01/30 11:00:47;;;;;;;63.20;34.50;;;102.40;2227.20;;;;;;5052185;28;20364;-79
2023/01/30 11:03:40;;;;;;;55.80;30.90;;;102.40;2227.20;;;;;;5051881;28;20026;-84
2023/01/30 11:06:10;;;;;;;53.72;30.20;;;102.40;2227.20;;;;;;5053600;28;20230;-82
2023/01/30 11:08:36;;;;;;;63.67;34.92;;;77.70;2227.20;;;;;;5051925;28;20479;-83
2023/01/30 11:11:36;;;;;;;101.15;54.90;;;102.40;2227.20;;;;;;5051572;28;20049;-80
2023/01/30 11:14:05;;;;;;;104.50;57.88;;;102.40;2227.20;;;;;;5052240;28;20032;-83
2023/01/30 11:16:34;;;;;;;66.30;41.67;;;102.50;2227.20;;;;;;5051980;28;20029;-83
2023/01/30 11:19:04;;;;;;;65.80;37.33;;;102.50;2227.20;;;;;;5052185;28;20130;-84
2023/01/30 11:21:30;;;;;;;68.20;41.53;;;102.50;2227.20;;;;;;5053864;28;20079;-85
2023/01/30 11:24:03;;;;;;;55.35;35.10;;;102.50;2227.20;;;;;;5052267;28;20028;-86
2023/01/30 11:26:33;;;;;;;43.35;28.50;;;102.50;2227.20;;;;;;5052720;28;20028;-87
2023/01/30 11:28:59;;;;;;;49.05;30.88;;;102.60;2227.20;;;;;;5052527;28;20037;-87
2023/01/30 11:31:27;;;;;;;58.30;35.55;;;102.70;2227.20;;;;;;5052795;28;20458;-87
2023/01/30 11:34:02;;;;;;;55.28;34.10;;;102.80;2227.20;;;;;;5052545;28;20036;-86
2023/01/30 11:36:32;;;;;;;45.25;28.70;;;102.80;2227.20;;;;;;5053515;28;20033;-89
2023/01/30 11:39:24;;;;;;;52.67;30.75;;;102.80;2227.20;;;;;;5056547;28;20025;-88
2023/01/30 11:41:54;;;;;;;48.53;27.73;;;102.80;2227.20;;;;;;5069104;28;20466;-84
2023/01/30 11:44:32;;;;;;;43.42;24.08;;;102.80;2227.20;;;;;;5056910;28;20139;-83
2023/01/30 11:47:12;;;;;;;39.30;25.15;;;102.80;2227.20;;;;;;5074601;28;20124;-78
2023/01/30 11:49:45;;;;;;;48.28;31.05;;;102.80;2227.20;;;;;;5076081;28;20498;-85
2023/01/30 11:52:12;;;;;;;43.13;30.23;;;102.80;2227.20;;;;;;5075526;28;20024;-80
2023/01/30 11:54:42;;;;;;;42.35;27.58;;;102.80;2227.20;;;;;;5075798;28;20051;-86
2023/01/30 11:57:14;;;;;;;43.65;25.98;;;102.80;2227.20;;;;;;5076178;28;20025;-86
2023/01/30 11:59:54;;;;;;;50.92;34.17;;;102.80;2227.20;;;;;;5075755;28;20334;-86
2023/01/30 12:02:42;;;;;;;50.72;34.17;;;102.80;2227.20;;;;;;5075682;28;20040;-87
2023/01/30 12:05:41;;;;;;;52.45;36.15;;;102.80;2227.20;;;;;;5075814;28;20030;-85
2023/01/30 12:08:19;;;;;;;71.05;40.47;;;102.80;2227.20;;;;;;5075738;28;20063;-88
2023/01/30 12:10:47;;;;;;;68.50;37.90;;;102.80;2227.20;;;;;;5075473;28;20135;-89
2023/01/30 12:13:19;;;;;;;55.95;32.55;;;102.80;2227.20;;;;;;5075759;28;20413;-87
2023/01/30 12:15:48;;;;;;;52.05;30.63;;;102.80;2227.20;;;;;;5075887;28;20355;-86
2023/01/30 12:18:35;;;;;;;42.47;27.05;;;102.80;2227.20;;;;;;5075993;28;20029;-89
2023/01/30 12:21:29;;;;;;;44.22;27.15;;;102.80;2227.20;;;;;;5076296;28;20382;-87
2023/01/30 12:24:20;;;;;;;53.45;32.50;;;102.70;2227.20;;;;;;5031849;28;20529;-89
2023/01/30 12:26:52;;;;;;;48.05;29.27;;;102.80;2227.20;;;;;;5076179;28;20470;-88